sensor_id;sensor_type;location;lat;lon;timestamp;pressure;altitude;pressure_sealevel;temperature;humidity
69351;BME280;57106;51.446;-2.606;2023-02-26T00:00:10;102313.45;;;4.27;69.10
69351;BME280;57106;51.446;-2.606;2023-02-26T00:02:30;102311.55;;;4.41;68.74
69351;BME280;57106;51.446;-2.606;2023-02-26T00:04:56;102314.50;;;4.09;69.55
69351;BME280;57106;51.446;-2.606;2023-02-26T00:07:22;102319.02;;;4.13;69.58
69351;BME280;57106;51.446;-2.606;2023-02-26T00:09:48;102318.63;;;4.15;69.54
69351;BME280;57106;51.446;-2.606;2023-02-26T00:12:14;102319.27;;;4.23;69.36
69351;BME280;57106;51.446;-2.606;2023-02-26T00:14:40;102319.72;;;4.20;69.68
69351;BME280;57106;51.446;-2.606;2023-02-26T00:17:18;102320.22;;;4.09;70.04
69351;BME280;57106;51.446;-2.606;2023-02-26T00:19:31;102322.29;;;4.15;69.81
69351;BME280;57106;51.446;-2.606;2023-02-26T00:21:57;102322.71;;;4.21;69.72
69351;BME280;57106;51.446;-2.606;2023-02-26T00:24:23;102326.78;;;4.22;69.66
69351;BME280;57106;51.446;-2.606;2023-02-26T00:26:49;102325.69;;;4.04;70.14
69351;BME280;57106;51.446;-2.606;2023-02-26T00:29:15;102330.48;;;4.16;70.09
69351;BME280;57106;51.446;-2.606;2023-02-26T00:31:41;102325.89;;;4.00;70.51
69351;BME280;57106;51.446;-2.606;2023-02-26T00:34:09;102328.70;;;4.03;70.43
69351;BME280;57106;51.446;-2.606;2023-02-26T00:36:38;102328.37;;;4.03;70.54
69351;BME280;57106;51.446;-2.606;2023-02-26T00:39:04;102321.84;;;3.98;70.70
69351;BME280;57106;51.446;-2.606;2023-02-26T00:41:22;102320.95;;;3.97;70.75
69351;BME280;57106;51.446;-2.606;2023-02-26T00:43:48;102319.52;;;3.92;71.08
69351;BME280;57106;51.446;-2.606;2023-02-26T00:46:20;102317.47;;;3.94;71.06
69351;BME280;57106;51.446;-2.606;2023-02-26T00:48:46;102319.30;;;4.08;71.41
69351;BME280;57106;51.446;-2.606;2023-02-26T00:51:10;102325.33;;;4.04;70.82
69351;BME280;57106;51.446;-2.606;2023-02-26T00:53:35;102324.52;;;4.05;70.90
69351;BME280;57106;51.446;-2.606;2023-02-26T00:55:55;102322.71;;;4.05;70.81
69351;BME280;57106;51.446;-2.606;2023-02-26T00:58:20;102319.59;;;3.96;71.17
69351;BME280;57106;51.446;-2.606;2023-02-26T01:00:47;102322.61;;;4.06;70.83
69351;BME280;57106;51.446;-2.606;2023-02-26T01:03:12;102321.41;;;4.18;70.52
69351;BME280;57106;51.446;-2.606;2023-02-26T01:05:38;102321.55;;;4.06;70.74
69351;BME280;57106;51.446;-2.606;2023-02-26T01:08:08;102320.61;;;3.98;70.92
69351;BME280;57106;51.446;-2.606;2023-02-26T01:10:30;102321.98;;;3.93;71.18
69351;BME280;57106;51.446;-2.606;2023-02-26T01:12:56;102323.62;;;3.93;71.30
69351;BME280;57106;51.446;-2.606;2023-02-26T01:15:22;102331.52;;;3.90;71.41
69351;BME280;57106;51.446;-2.606;2023-02-26T01:17:50;102333.82;;;3.87;71.66
69351;BME280;57106;51.446;-2.606;2023-02-26T01:20:17;102333.37;;;3.87;71.67
69351;BME280;57106;51.446;-2.606;2023-02-26T01:22:43;102337.34;;;3.81;71.92
69351;BME280;57106;51.446;-2.606;2023-02-26T01:25:07;102343.04;;;3.87;71.75
69351;BME280;57106;51.446;-2.606;2023-02-26T01:27:31;102344.52;;;3.90;71.54
69351;BME280;57106;51.446;-2.606;2023-02-26T01:29:57;102349.57;;;3.89;71.84
69351;BME280;57106;51.446;-2.606;2023-02-26T01:32:25;102350.00;;;3.90;71.74
69351;BME280;57106;51.446;-2.606;2023-02-26T01:34:53;102349.55;;;4.00;71.53
69351;BME280;57106;51.446;-2.606;2023-02-26T01:37:21;102348.77;;;4.00;71.52
69351;BME280;57106;51.446;-2.606;2023-02-26T01:39:43;102352.41;;;3.98;71.66
69351;BME280;57106;51.446;-2.606;2023-02-26T01:42:12;102350.81;;;4.03;71.46
69351;BME280;57106;51.446;-2.606;2023-02-26T01:44:35;102357.68;;;3.80;72.12
69351;BME280;57106;51.446;-2.606;2023-02-26T01:47:05;102364.51;;;3.91;72.27
69351;BME280;57106;51.446;-2.606;2023-02-26T01:49:22;102369.16;;;3.86;72.36
69351;BME280;57106;51.446;-2.606;2023-02-26T01:51:51;102365.29;;;3.96;71.96
69351;BME280;57106;51.446;-2.606;2023-02-26T01:54:15;102370.81;;;3.94;72.29
69351;BME280;57106;51.446;-2.606;2023-02-26T01:56:40;102364.95;;;3.88;72.28
69351;BME280;57106;51.446;-2.606;2023-02-26T01:59:06;102364.39;;;4.01;71.93
69351;BME280;57106;51.446;-2.606;2023-02-26T02:01:31;102359.30;;;3.87;72.35
69351;BME280;57106;51.446;-2.606;2023-02-26T02:03:56;102358.54;;;3.89;72.39
69351;BME280;57106;51.446;-2.606;2023-02-26T02:06:24;102362.04;;;3.87;72.61
69351;BME280;57106;51.446;-2.606;2023-02-26T02:08:48;102361.81;;;3.85;72.42
69351;BME280;57106;51.446;-2.606;2023-02-26T02:11:14;102365.41;;;3.82;72.69
69351;BME280;57106;51.446;-2.606;2023-02-26T02:13:48;102362.13;;;3.79;72.74
69351;BME280;57106;51.446;-2.606;2023-02-26T02:16:14;102364.00;;;3.66;73.11
69351;BME280;57106;51.446;-2.606;2023-02-26T02:18:37;102371.08;;;3.80;72.77
69351;BME280;57106;51.446;-2.606;2023-02-26T02:21:13;102372.63;;;3.66;73.11
69351;BME280;57106;51.446;-2.606;2023-02-26T02:23:26;102371.71;;;3.61;73.32
69351;BME280;57106;51.446;-2.606;2023-02-26T02:28:21;102362.51;;;3.68;73.07
69351;BME280;57106;51.446;-2.606;2023-02-26T02:33:11;102366.39;;;3.47;73.58
69351;BME280;57106;51.446;-2.606;2023-02-26T02:35:35;102369.18;;;3.41;73.65
69351;BME280;57106;51.446;-2.606;2023-02-26T02:38:10;102370.94;;;3.42;73.59
69351;BME280;57106;51.446;-2.606;2023-02-26T02:40:25;102374.82;;;3.41;73.74
69351;BME280;57106;51.446;-2.606;2023-02-26T02:42:52;102369.09;;;3.40;73.72
69351;BME280;57106;51.446;-2.606;2023-02-26T02:45:19;102376.17;;;3.42;73.75
69351;BME280;57106;51.446;-2.606;2023-02-26T02:47:42;102375.83;;;3.45;73.75
69351;BME280;57106;51.446;-2.606;2023-02-26T02:50:11;102375.18;;;3.49;73.21
69351;BME280;57106;51.446;-2.606;2023-02-26T02:52:37;102376.79;;;3.43;73.31
69351;BME280;57106;51.446;-2.606;2023-02-26T02:54:59;102381.53;;;3.35;73.57
69351;BME280;57106;51.446;-2.606;2023-02-26T02:57:25;102383.68;;;3.36;73.59
69351;BME280;57106;51.446;-2.606;2023-02-26T02:59:51;102385.66;;;3.37;73.67
69351;BME280;57106;51.446;-2.606;2023-02-26T03:02:18;102383.74;;;3.49;73.25
69351;BME280;57106;51.446;-2.606;2023-02-26T03:04:40;102385.10;;;3.36;73.37
69351;BME280;57106;51.446;-2.606;2023-02-26T03:07:06;102390.17;;;3.44;72.90
69351;BME280;57106;51.446;-2.606;2023-02-26T03:09:32;102390.18;;;3.39;73.38
69351;BME280;57106;51.446;-2.606;2023-02-26T03:11:57;102387.84;;;3.34;73.32
69351;BME280;57106;51.446;-2.606;2023-02-26T03:14:23;102384.42;;;3.20;73.63
69351;BME280;57106;51.446;-2.606;2023-02-26T03:17:01;102381.19;;;3.17;73.64
69351;BME280;57106;51.446;-2.606;2023-02-26T03:19:21;102386.84;;;3.11;74.01
69351;BME280;57106;51.446;-2.606;2023-02-26T03:21:47;102392.03;;;3.11;74.09
69351;BME280;57106;51.446;-2.606;2023-02-26T03:24:13;102392.44;;;3.10;74.07
69351;BME280;57106;51.446;-2.606;2023-02-26T03:26:38;102395.08;;;3.13;73.96
69351;BME280;57106;51.446;-2.606;2023-02-26T03:29:03;102393.41;;;3.11;73.94
69351;BME280;57106;51.446;-2.606;2023-02-26T03:31:28;102398.73;;;3.12;73.89
69351;BME280;57106;51.446;-2.606;2023-02-26T03:33:55;102402.80;;;3.22;73.48
69351;BME280;57106;51.446;-2.606;2023-02-26T03:36:18;102403.86;;;3.21;73.52
69351;BME280;57106;51.446;-2.606;2023-02-26T03:38:45;102406.31;;;3.07;74.04
69351;BME280;57106;51.446;-2.606;2023-02-26T03:41:10;102406.33;;;3.09;73.96
69351;BME280;57106;51.446;-2.606;2023-02-26T03:43:37;102402.82;;;2.95;74.29
69351;BME280;57106;51.446;-2.606;2023-02-26T03:46:04;102409.23;;;2.92;74.42
69351;BME280;57106;51.446;-2.606;2023-02-26T03:48:27;102407.62;;;2.95;74.38
69351;BME280;57106;51.446;-2.606;2023-02-26T03:50:53;102412.29;;;3.01;74.24
69351;BME280;57106;51.446;-2.606;2023-02-26T03:53:20;102412.19;;;2.96;74.14
69351;BME280;57106;51.446;-2.606;2023-02-26T03:55:46;102420.42;;;2.96;74.26
69351;BME280;57106;51.446;-2.606;2023-02-26T03:58:08;102417.36;;;2.92;74.40
69351;BME280;57106;51.446;-2.606;2023-02-26T04:00:36;102409.35;;;2.93;74.54
69351;BME280;57106;51.446;-2.606;2023-02-26T04:03:03;102415.71;;;3.00;74.37
69351;BME280;57106;51.446;-2.606;2023-02-26T04:05:27;102416.91;;;3.09;73.83
69351;BME280;57106;51.446;-2.606;2023-02-26T04:07:51;102417.47;;;2.94;74.41
69351;BME280;57106;51.446;-2.606;2023-02-26T04:10:20;102421.26;;;2.92;74.53
69351;BME280;57106;51.446;-2.606;2023-02-26T04:12:43;102423.63;;;2.90;74.62
69351;BME280;57106;51.446;-2.606;2023-02-26T04:15:09;102427.13;;;2.94;74.65
69351;BME280;57106;51.446;-2.606;2023-02-26T04:17:34;102431.73;;;2.90;74.53
69351;BME280;57106;51.446;-2.606;2023-02-26T04:20:00;102434.28;;;2.92;74.31
69351;BME280;57106;51.446;-2.606;2023-02-26T04:22:26;102445.96;;;2.84;74.56
69351;BME280;57106;51.446;-2.606;2023-02-26T04:24:52;102452.21;;;2.88;74.67
69351;BME280;57106;51.446;-2.606;2023-02-26T04:27:17;102457.42;;;2.89;74.52
69351;BME280;57106;51.446;-2.606;2023-02-26T04:29:43;102462.04;;;2.89;74.39
69351;BME280;57106;51.446;-2.606;2023-02-26T04:32:09;102456.37;;;2.87;74.58
69351;BME280;57106;51.446;-2.606;2023-02-26T04:34:35;102458.04;;;2.90;74.55
69351;BME280;57106;51.446;-2.606;2023-02-26T04:37:01;102456.02;;;2.82;74.63
69351;BME280;57106;51.446;-2.606;2023-02-26T04:39:27;102462.14;;;2.76;74.83
69351;BME280;57106;51.446;-2.606;2023-02-26T04:41:52;102454.82;;;2.84;74.42
69351;BME280;57106;51.446;-2.606;2023-02-26T04:44:18;102459.75;;;2.78;74.71
69351;BME280;57106;51.446;-2.606;2023-02-26T04:46:44;102460.28;;;2.90;74.40
69351;BME280;57106;51.446;-2.606;2023-02-26T04:49:10;102464.19;;;2.77;74.83
69351;BME280;57106;51.446;-2.606;2023-02-26T04:51:36;102464.89;;;2.67;75.05
69351;BME280;57106;51.446;-2.606;2023-02-26T04:54:02;102469.16;;;2.85;74.70
69351;BME280;57106;51.446;-2.606;2023-02-26T04:56:27;102471.01;;;2.84;74.62
69351;BME280;57106;51.446;-2.606;2023-02-26T04:58:53;102475.85;;;2.85;74.67
69351;BME280;57106;51.446;-2.606;2023-02-26T05:01:19;102477.09;;;2.96;74.05
69351;BME280;57106;51.446;-2.606;2023-02-26T05:03:45;102475.50;;;2.74;74.68
69351;BME280;57106;51.446;-2.606;2023-02-26T05:06:11;102471.98;;;2.61;75.23
69351;BME280;57106;51.446;-2.606;2023-02-26T05:11:02;102477.59;;;2.87;74.67
69351;BME280;57106;51.446;-2.606;2023-02-26T05:13:27;102475.98;;;3.04;73.94
69351;BME280;57106;51.446;-2.606;2023-02-26T05:15:53;102485.30;;;3.07;73.63
69351;BME280;57106;51.446;-2.606;2023-02-26T05:18:19;102486.88;;;3.01;73.92
69351;BME280;57106;51.446;-2.606;2023-02-26T05:20:44;102486.90;;;3.04;73.92
69351;BME280;57106;51.446;-2.606;2023-02-26T05:23:10;102490.81;;;2.99;74.06
69351;BME280;57106;51.446;-2.606;2023-02-26T05:25:36;102496.64;;;3.11;73.70
69351;BME280;57106;51.446;-2.606;2023-02-26T05:28:02;102493.69;;;2.93;74.25
69351;BME280;57106;51.446;-2.606;2023-02-26T05:30:28;102499.29;;;2.90;74.40
69351;BME280;57106;51.446;-2.606;2023-02-26T05:32:53;102497.90;;;2.84;74.73
69351;BME280;57106;51.446;-2.606;2023-02-26T05:35:19;102502.65;;;2.96;74.21
69351;BME280;57106;51.446;-2.606;2023-02-26T05:37:45;102498.29;;;2.88;74.56
69351;BME280;57106;51.446;-2.606;2023-02-26T05:40:13;102498.29;;;2.88;74.67
69351;BME280;57106;51.446;-2.606;2023-02-26T05:42:38;102499.41;;;2.81;74.81
69351;BME280;57106;51.446;-2.606;2023-02-26T05:45:04;102500.94;;;2.92;74.76
69351;BME280;57106;51.446;-2.606;2023-02-26T05:47:29;102498.76;;;2.83;75.03
69351;BME280;57106;51.446;-2.606;2023-02-26T05:49:54;102503.22;;;2.83;74.91
69351;BME280;57106;51.446;-2.606;2023-02-26T05:52:20;102502.24;;;2.94;74.62
69351;BME280;57106;51.446;-2.606;2023-02-26T05:54:46;102503.60;;;3.03;74.44
69351;BME280;57106;51.446;-2.606;2023-02-26T05:57:12;102503.75;;;2.92;74.56
69351;BME280;57106;51.446;-2.606;2023-02-26T05:59:38;102503.17;;;2.80;74.90
69351;BME280;57106;51.446;-2.606;2023-02-26T06:02:04;102510.93;;;2.88;74.58
69351;BME280;57106;51.446;-2.606;2023-02-26T06:04:29;102508.82;;;2.72;75.16
69351;BME280;57106;51.446;-2.606;2023-02-26T06:06:56;102508.36;;;2.74;75.16
69351;BME280;57106;51.446;-2.606;2023-02-26T06:09:21;102520.20;;;2.79;74.95
69351;BME280;57106;51.446;-2.606;2023-02-26T06:11:47;102518.81;;;2.80;75.07
69351;BME280;57106;51.446;-2.606;2023-02-26T06:14:13;102528.38;;;2.69;75.38
69351;BME280;57106;51.446;-2.606;2023-02-26T06:16:39;102530.01;;;2.61;75.78
69351;BME280;57106;51.446;-2.606;2023-02-26T06:19:04;102530.91;;;2.66;75.73
69351;BME280;57106;51.446;-2.606;2023-02-26T06:21:30;102538.44;;;2.62;75.83
69351;BME280;57106;51.446;-2.606;2023-02-26T06:23:58;102536.96;;;2.47;76.17
69351;BME280;57106;51.446;-2.606;2023-02-26T06:26:22;102540.26;;;2.64;75.80
69351;BME280;57106;51.446;-2.606;2023-02-26T06:28:48;102546.81;;;2.76;75.43
69351;BME280;57106;51.446;-2.606;2023-02-26T06:36:06;102553.43;;;2.72;75.40
69351;BME280;57106;51.446;-2.606;2023-02-26T06:38:32;102556.85;;;2.62;75.48
69351;BME280;57106;51.446;-2.606;2023-02-26T06:53:06;102576.08;;;2.55;75.90
69351;BME280;57106;51.446;-2.606;2023-02-26T07:05:16;102584.74;;;2.64;75.65
69351;BME280;57106;51.446;-2.606;2023-02-26T07:07:43;102590.78;;;2.56;75.70
69351;BME280;57106;51.446;-2.606;2023-02-26T07:12:33;102603.18;;;2.46;76.09
69351;BME280;57106;51.446;-2.606;2023-02-26T07:14:58;102610.13;;;2.46;76.28
69351;BME280;57106;51.446;-2.606;2023-02-26T07:17:25;102611.40;;;2.33;76.55
69351;BME280;57106;51.446;-2.606;2023-02-26T07:19:51;102622.97;;;2.31;76.70
69351;BME280;57106;51.446;-2.606;2023-02-26T07:22:17;102628.05;;;2.27;76.94
69351;BME280;57106;51.446;-2.606;2023-02-26T07:24:42;102634.60;;;2.22;77.04
69351;BME280;57106;51.446;-2.606;2023-02-26T07:27:08;102636.98;;;2.31;76.92
69351;BME280;57106;51.446;-2.606;2023-02-26T07:29:34;102642.57;;;2.28;77.04
69351;BME280;57106;51.446;-2.606;2023-02-26T07:32:00;102644.48;;;2.28;76.90
69351;BME280;57106;51.446;-2.606;2023-02-26T07:34:26;102643.28;;;2.30;77.08
69351;BME280;57106;51.446;-2.606;2023-02-26T07:36:51;102645.66;;;2.29;77.04
69351;BME280;57106;51.446;-2.606;2023-02-26T07:39:17;102643.99;;;2.33;76.90
69351;BME280;57106;51.446;-2.606;2023-02-26T07:41:43;102648.97;;;2.25;77.10
69351;BME280;57106;51.446;-2.606;2023-02-26T07:44:09;102651.82;;;2.51;76.81
69351;BME280;57106;51.446;-2.606;2023-02-26T07:46:35;102652.02;;;2.53;76.28
69351;BME280;57106;51.446;-2.606;2023-02-26T07:49:00;102648.48;;;2.61;76.03
69351;BME280;57106;51.446;-2.606;2023-02-26T07:51:26;102651.66;;;2.46;76.23
69351;BME280;57106;51.446;-2.606;2023-02-26T07:53:52;102644.57;;;2.55;76.31
69351;BME280;57106;51.446;-2.606;2023-02-26T07:56:17;102645.40;;;2.70;75.84
69351;BME280;57106;51.446;-2.606;2023-02-26T07:58:43;102650.98;;;2.73;75.33
69351;BME280;57106;51.446;-2.606;2023-02-26T08:01:09;102652.31;;;2.80;75.31
69351;BME280;57106;51.446;-2.606;2023-02-26T08:03:34;102662.18;;;2.86;75.16
69351;BME280;57106;51.446;-2.606;2023-02-26T08:06:00;102662.06;;;2.87;74.89
69351;BME280;57106;51.446;-2.606;2023-02-26T08:08:27;102665.00;;;2.76;75.29
69351;BME280;57106;51.446;-2.606;2023-02-26T08:10:52;102672.69;;;2.74;75.33
69351;BME280;57106;51.446;-2.606;2023-02-26T08:13:17;102672.30;;;2.93;74.99
69351;BME280;57106;51.446;-2.606;2023-02-26T08:15:42;102670.87;;;3.02;74.58
69351;BME280;57106;51.446;-2.606;2023-02-26T08:18:09;102671.76;;;2.89;74.94
69351;BME280;57106;51.446;-2.606;2023-02-26T08:20:33;102672.73;;;2.95;74.82
69351;BME280;57106;51.446;-2.606;2023-02-26T08:22:59;102672.66;;;3.14;74.18
69351;BME280;57106;51.446;-2.606;2023-02-26T08:25:26;102677.32;;;2.99;74.67
69351;BME280;57106;51.446;-2.606;2023-02-26T08:27:51;102674.84;;;3.10;74.39
69351;BME280;57106;51.446;-2.606;2023-02-26T08:30:17;102680.54;;;3.05;74.75
69351;BME280;57106;51.446;-2.606;2023-02-26T08:32:43;102677.35;;;3.06;74.52
69351;BME280;57106;51.446;-2.606;2023-02-26T08:35:09;102685.24;;;3.08;74.61
69351;BME280;57106;51.446;-2.606;2023-02-26T08:37:34;102681.71;;;3.13;74.55
69351;BME280;57106;51.446;-2.606;2023-02-26T08:40:00;102688.35;;;3.19;74.44
69351;BME280;57106;51.446;-2.606;2023-02-26T08:42:27;102689.12;;;3.43;73.60
69351;BME280;57106;51.446;-2.606;2023-02-26T08:44:52;102691.77;;;3.62;73.08
69351;BME280;57106;51.446;-2.606;2023-02-26T08:47:17;102691.40;;;3.47;73.48
69351;BME280;57106;51.446;-2.606;2023-02-26T08:49:43;102697.55;;;3.65;73.09
69351;BME280;57106;51.446;-2.606;2023-02-26T08:52:09;102712.35;;;3.68;72.69
69351;BME280;57106;51.446;-2.606;2023-02-26T08:54:35;102709.33;;;3.71;73.03
69351;BME280;57106;51.446;-2.606;2023-02-26T08:57:00;102704.87;;;3.75;73.12
69351;BME280;57106;51.446;-2.606;2023-02-26T08:59:27;102702.05;;;3.72;72.74
69351;BME280;57106;51.446;-2.606;2023-02-26T09:01:52;102707.88;;;3.89;72.79
69351;BME280;57106;51.446;-2.606;2023-02-26T09:04:18;102710.75;;;3.86;72.27
69351;BME280;57106;51.446;-2.606;2023-02-26T09:06:43;102718.67;;;3.84;72.79
69351;BME280;57106;51.446;-2.606;2023-02-26T09:09:10;102720.60;;;3.97;71.97
69351;BME280;57106;51.446;-2.606;2023-02-26T09:11:35;102721.81;;;3.96;72.27
69351;BME280;57106;51.446;-2.606;2023-02-26T09:14:01;102722.64;;;4.09;72.04
69351;BME280;57106;51.446;-2.606;2023-02-26T09:16:27;102722.07;;;4.18;71.53
69351;BME280;57106;51.446;-2.606;2023-02-26T09:18:52;102730.70;;;4.09;72.08
69351;BME280;57106;51.446;-2.606;2023-02-26T09:21:18;102725.56;;;4.02;72.15
69351;BME280;57106;51.446;-2.606;2023-02-26T09:23:44;102727.33;;;3.91;72.56
69351;BME280;57106;51.446;-2.606;2023-02-26T09:26:10;102743.37;;;4.07;72.60
69351;BME280;57106;51.446;-2.606;2023-02-26T09:28:35;102739.64;;;4.31;71.80
69351;BME280;57106;51.446;-2.606;2023-02-26T09:31:00;102748.92;;;4.37;71.29
69351;BME280;57106;51.446;-2.606;2023-02-26T09:33:26;102743.83;;;4.40;71.31
69351;BME280;57106;51.446;-2.606;2023-02-26T09:35:52;102743.81;;;4.64;70.76
69351;BME280;57106;51.446;-2.606;2023-02-26T09:38:18;102754.57;;;4.50;70.43
69351;BME280;57106;51.446;-2.606;2023-02-26T09:40:47;102768.68;;;4.34;71.16
69351;BME280;57106;51.446;-2.606;2023-02-26T09:43:18;102764.01;;;4.41;71.14
69351;BME280;57106;51.446;-2.606;2023-02-26T09:45:34;102762.47;;;4.46;71.02
69351;BME280;57106;51.446;-2.606;2023-02-26T09:48:00;102766.63;;;4.52;70.74
69351;BME280;57106;51.446;-2.606;2023-02-26T09:50:27;102770.17;;;4.65;70.45
69351;BME280;57106;51.446;-2.606;2023-02-26T09:52:54;102770.66;;;4.78;70.44
69351;BME280;57106;51.446;-2.606;2023-02-26T09:55:22;102770.68;;;4.74;69.97
69351;BME280;57106;51.446;-2.606;2023-02-26T09:57:44;102769.23;;;4.61;69.96
69351;BME280;57106;51.446;-2.606;2023-02-26T10:00:19;102771.86;;;4.61;70.01
69351;BME280;57106;51.446;-2.606;2023-02-26T10:02:38;102774.22;;;4.68;70.08
69351;BME280;57106;51.446;-2.606;2023-02-26T10:05:06;102770.53;;;4.79;69.64
69351;BME280;57106;51.446;-2.606;2023-02-26T10:07:31;102772.88;;;4.69;70.05
69351;BME280;57106;51.446;-2.606;2023-02-26T10:10:02;102775.18;;;4.84;69.38
69351;BME280;57106;51.446;-2.606;2023-02-26T10:12:17;102773.12;;;5.18;68.58
69351;BME280;57106;51.446;-2.606;2023-02-26T10:14:45;102776.47;;;5.19;67.60
69351;BME280;57106;51.446;-2.606;2023-02-26T10:17:15;102783.47;;;5.23;67.19
69351;BME280;57106;51.446;-2.606;2023-02-26T10:19:36;102789.09;;;5.18;67.57
69351;BME280;57106;51.446;-2.606;2023-02-26T10:22:02;102791.05;;;5.26;67.34
69351;BME280;57106;51.446;-2.606;2023-02-26T10:24:28;102787.83;;;5.16;67.72
69351;BME280;57106;51.446;-2.606;2023-02-26T10:26:54;102792.29;;;5.54;66.99
69351;BME280;57106;51.446;-2.606;2023-02-26T10:29:19;102799.86;;;5.56;66.58
69351;BME280;57106;51.446;-2.606;2023-02-26T10:31:51;102793.98;;;5.42;67.04
69351;BME280;57106;51.446;-2.606;2023-02-26T10:34:15;102794.00;;;5.56;66.04
69351;BME280;57106;51.446;-2.606;2023-02-26T10:36:39;102804.82;;;5.69;65.89
69351;BME280;57106;51.446;-2.606;2023-02-26T10:39:03;102807.69;;;5.79;64.92
69351;BME280;57106;51.446;-2.606;2023-02-26T10:41:28;102806.62;;;6.00;64.40
69351;BME280;57106;51.446;-2.606;2023-02-26T10:43:55;102807.91;;;5.75;64.37
69351;BME280;57106;51.446;-2.606;2023-02-26T10:46:23;102811.31;;;5.62;64.28
69351;BME280;57106;51.446;-2.606;2023-02-26T10:48:53;102810.44;;;5.79;64.23
69351;BME280;57106;51.446;-2.606;2023-02-26T10:51:12;102813.95;;;6.02;64.15
69351;BME280;57106;51.446;-2.606;2023-02-26T10:53:35;102815.18;;;5.98;63.06
69351;BME280;57106;51.446;-2.606;2023-02-26T10:56:03;102819.32;;;6.02;63.02
69351;BME280;57106;51.446;-2.606;2023-02-26T10:58:26;102815.09;;;5.88;63.57
69351;BME280;57106;51.446;-2.606;2023-02-26T11:00:52;102821.58;;;6.25;63.08
69351;BME280;57106;51.446;-2.606;2023-02-26T11:03:18;102824.13;;;6.01;63.21
69351;BME280;57106;51.446;-2.606;2023-02-26T11:05:42;102819.60;;;6.20;62.92
69351;BME280;57106;51.446;-2.606;2023-02-26T11:08:14;102824.68;;;6.38;62.36
69351;BME280;57106;51.446;-2.606;2023-02-26T11:10:40;102824.99;;;6.22;62.92
69351;BME280;57106;51.446;-2.606;2023-02-26T11:12:59;102837.88;;;6.28;62.72
69351;BME280;57106;51.446;-2.606;2023-02-26T11:15:26;102834.85;;;6.71;62.04
69351;BME280;57106;51.446;-2.606;2023-02-26T11:17:54;102840.44;;;6.75;62.39
69351;BME280;57106;51.446;-2.606;2023-02-26T11:20:23;102847.03;;;6.72;61.90
69351;BME280;57106;51.446;-2.606;2023-02-26T11:22:46;102848.45;;;6.49;62.25
69351;BME280;57106;51.446;-2.606;2023-02-26T11:25:12;102845.82;;;6.55;61.99
69351;BME280;57106;51.446;-2.606;2023-02-26T11:27:35;102852.78;;;6.40;62.36
69351;BME280;57106;51.446;-2.606;2023-02-26T11:30:05;102858.33;;;6.69;62.18
69351;BME280;57106;51.446;-2.606;2023-02-26T11:32:30;102863.86;;;6.90;61.55
69351;BME280;57106;51.446;-2.606;2023-02-26T11:34:51;102853.16;;;7.20;60.80
69351;BME280;57106;51.446;-2.606;2023-02-26T11:37:18;102855.03;;;6.83;61.43
69351;BME280;57106;51.446;-2.606;2023-02-26T11:39:41;102859.06;;;6.52;62.29
69351;BME280;57106;51.446;-2.606;2023-02-26T11:42:09;102852.56;;;6.36;60.49
69351;BME280;57106;51.446;-2.606;2023-02-26T11:44:35;102859.62;;;6.34;62.92
69351;BME280;57106;51.446;-2.606;2023-02-26T11:47:03;102855.37;;;6.65;61.66
69351;BME280;57106;51.446;-2.606;2023-02-26T11:49:26;102859.06;;;6.76;61.63
69351;BME280;57106;51.446;-2.606;2023-02-26T11:52:02;102862.76;;;6.90;61.54
69351;BME280;57106;51.446;-2.606;2023-02-26T11:54:21;102861.88;;;6.85;61.71
69351;BME280;57106;51.446;-2.606;2023-02-26T11:56:42;102858.79;;;7.08;61.35
69351;BME280;57106;51.446;-2.606;2023-02-26T11:59:15;102864.76;;;7.12;61.13
69351;BME280;57106;51.446;-2.606;2023-02-26T12:01:34;102852.42;;;7.26;53.96
69351;BME280;57106;51.446;-2.606;2023-02-26T12:04:00;102854.47;;;7.13;51.64
69351;BME280;57106;51.446;-2.606;2023-02-26T12:06:24;102859.00;;;7.33;51.12
69351;BME280;57106;51.446;-2.606;2023-02-26T12:08:50;102854.90;;;7.41;51.81
69351;BME280;57106;51.446;-2.606;2023-02-26T12:11:34;102850.07;;;7.54;50.44
69351;BME280;57106;51.446;-2.606;2023-02-26T12:13:51;102856.23;;;7.69;50.71
69351;BME280;57106;51.446;-2.606;2023-02-26T12:16:14;102850.99;;;7.52;51.05
69351;BME280;57106;51.446;-2.606;2023-02-26T12:18:43;102857.17;;;7.85;50.14
69351;BME280;57106;51.446;-2.606;2023-02-26T12:21:09;102846.32;;;7.99;49.25
69351;BME280;57106;51.446;-2.606;2023-02-26T12:23:35;102852.16;;;8.17;49.23
69351;BME280;57106;51.446;-2.606;2023-02-26T12:25:58;102852.12;;;8.36;48.11
69351;BME280;57106;51.446;-2.606;2023-02-26T12:30:54;102840.60;;;8.05;47.76
69351;BME280;57106;51.446;-2.606;2023-02-26T12:33:15;102845.80;;;8.21;48.23
69351;BME280;57106;51.446;-2.606;2023-02-26T12:35:44;102846.09;;;8.27;47.01
69351;BME280;57106;51.446;-2.606;2023-02-26T12:38:07;102843.43;;;8.53;46.46
69351;BME280;57106;51.446;-2.606;2023-02-26T12:42:56;102835.12;;;8.26;46.16
69351;BME280;57106;51.446;-2.606;2023-02-26T12:45:25;102832.92;;;8.25;44.41
69351;BME280;57106;51.446;-2.606;2023-02-26T12:47:46;102833.78;;;7.89;45.77
69351;BME280;57106;51.446;-2.606;2023-02-26T12:50:17;102839.05;;;7.91;46.02
69351;BME280;57106;51.446;-2.606;2023-02-26T12:52:42;102836.72;;;7.98;45.84
69351;BME280;57106;51.446;-2.606;2023-02-26T12:55:12;102839.73;;;8.05;46.62
69351;BME280;57106;51.446;-2.606;2023-02-26T12:57:38;102836.13;;;8.05;46.77
69351;BME280;57106;51.446;-2.606;2023-02-26T12:59:59;102838.29;;;8.32;46.43
69351;BME280;57106;51.446;-2.606;2023-02-26T13:02:30;102827.32;;;8.49;45.94
69351;BME280;57106;51.446;-2.606;2023-02-26T13:04:52;102827.51;;;8.46;44.73
69351;BME280;57106;51.446;-2.606;2023-02-26T13:07:22;102832.13;;;8.56;44.29
69351;BME280;57106;51.446;-2.606;2023-02-26T13:09:34;102835.49;;;8.27;44.19
69351;BME280;57106;51.446;-2.606;2023-02-26T13:12:04;102836.16;;;8.37;44.39
69351;BME280;57106;51.446;-2.606;2023-02-26T13:14:32;102837.32;;;8.07;44.61
69351;BME280;57106;51.446;-2.606;2023-02-26T13:16:51;102841.54;;;8.06;44.47
69351;BME280;57106;51.446;-2.606;2023-02-26T13:19:22;102847.56;;;8.07;45.76
69351;BME280;57106;51.446;-2.606;2023-02-26T13:21:43;102847.54;;;7.91;44.33